sensor_id;sensor_type;location;lat;lon;timestamp;temperature;humidity
13589;DHT22;6865;52.552;13.434;2023-06-10T00:00:46;15.90;99.90
13589;DHT22;6865;52.552;13.434;2023-06-10T00:03:13;15.80;99.90
13589;DHT22;6865;52.552;13.434;2023-06-10T00:05:41;15.80;99.90
13589;DHT22;6865;52.552;13.434;2023-06-10T00:08:08;15.70;99.90
13589;DHT22;6865;52.552;13.434;2023-06-10T00:10:35;15.80;99.90
13589;DHT22;6865;52.552;13.434;2023-06-10T00:13:03;15.70;99.90
13589;DHT22;6865;52.552;13.434;2023-06-10T00:15:30;15.70;99.90
13589;DHT22;6865;52.552;13.434;2023-06-10T00:17:57;15.70;99.90
13589;DHT22;6865;52.552;13.434;2023-06-10T00:20:24;15.70;99.90
13589;DHT22;6865;52.552;13.434;2023-06-10T00:22:51;15.70;99.90
13589;DHT22;6865;52.552;13.434;2023-06-10T00:25:18;15.70;99.90
13589;DHT22;6865;52.552;13.434;2023-06-10T00:27:45;15.70;99.90
13589;DHT22;6865;52.552;13.434;2023-06-10T00:30:12;15.70;99.90
13589;DHT22;6865;52.552;13.434;2023-06-10T00:32:39;15.60;99.90
13589;DHT22;6865;52.552;13.434;2023-06-10T00:35:06;15.60;99.90
13589;DHT22;6865;52.552;13.434;2023-06-10T00:37:34;15.60;99.90
13589;DHT22;6865;52.552;13.434;2023-06-10T00:40:05;15.60;99.90
13589;DHT22;6865;52.552;13.434;2023-06-10T00:42:32;15.60;99.90
13589;DHT22;6865;52.552;13.434;2023-06-10T00:44:59;15.50;99.90
13589;DHT22;6865;52.552;13.434;2023-06-10T00:47:27;15.50;99.90
13589;DHT22;6865;52.552;13.434;2023-06-10T00:49:54;15.50;99.90
13589;DHT22;6865;52.552;13.434;2023-06-10T00:52:22;15.40;99.90
13589;DHT22;6865;52.552;13.434;2023-06-10T00:54:51;15.40;99.90
13589;DHT22;6865;52.552;13.434;2023-06-10T00:57:19;15.40;99.90
13589;DHT22;6865;52.552;13.434;2023-06-10T00:59:48;15.30;99.90
13589;DHT22;6865;52.552;13.434;2023-06-10T01:02:16;15.30;99.90
13589;DHT22;6865;52.552;13.434;2023-06-10T01:04:43;15.20;99.90
13589;DHT22;6865;52.552;13.434;2023-06-10T01:07:21;15.20;99.90
13589;DHT22;6865;52.552;13.434;2023-06-10T01:10:02;15.10;99.90
13589;DHT22;6865;52.552;13.434;2023-06-10T01:12:52;15.10;99.90
13589;DHT22;6865;52.552;13.434;2023-06-10T01:15:22;13.40;99.90
13589;DHT22;6865;52.552;13.434;2023-06-10T01:18:04;15.10;99.90
13589;DHT22;6865;52.552;13.434;2023-06-10T01:20:35;15.00;99.90
13589;DHT22;6865;52.552;13.434;2023-06-10T01:23:03;15.00;99.90
13589;DHT22;6865;52.552;13.434;2023-06-10T01:25:30;15.00;99.90
13589;DHT22;6865;52.552;13.434;2023-06-10T01:28:22;15.00;99.90
13589;DHT22;6865;52.552;13.434;2023-06-10T01:33:28;14.90;99.90
13589;DHT22;6865;52.552;13.434;2023-06-10T01:35:59;14.90;99.90
13589;DHT22;6865;52.552;13.434;2023-06-10T01:38:32;14.90;99.90
13589;DHT22;6865;52.552;13.434;2023-06-10T01:41:00;14.90;99.90
13589;DHT22;6865;52.552;13.434;2023-06-10T01:43:27;14.80;99.90
13589;DHT22;6865;52.552;13.434;2023-06-10T01:45:53;14.80;99.90
13589;DHT22;6865;52.552;13.434;2023-06-10T01:48:20;14.80;99.90
13589;DHT22;6865;52.552;13.434;2023-06-10T01:50:47;14.80;99.90
13589;DHT22;6865;52.552;13.434;2023-06-10T01:53:13;14.80;99.90
13589;DHT22;6865;52.552;13.434;2023-06-10T01:55:40;14.70;99.90
13589;DHT22;6865;52.552;13.434;2023-06-10T01:58:06;14.70;99.90
13589;DHT22;6865;52.552;13.434;2023-06-10T02:00:33;14.70;99.90
13589;DHT22;6865;52.552;13.434;2023-06-10T02:03:00;14.60;99.90
13589;DHT22;6865;52.552;13.434;2023-06-10T02:05:27;14.70;99.90
13589;DHT22;6865;52.552;13.434;2023-06-10T02:07:53;14.60;99.90
13589;DHT22;6865;52.552;13.434;2023-06-10T02:10:20;14.60;99.90
13589;DHT22;6865;52.552;13.434;2023-06-10T02:12:47;14.60;99.90
13589;DHT22;6865;52.552;13.434;2023-06-10T02:15:13;14.60;99.90
13589;DHT22;6865;52.552;13.434;2023-06-10T02:17:40;14.50;99.90
13589;DHT22;6865;52.552;13.434;2023-06-10T02:20:07;14.50;99.90
13589;DHT22;6865;52.552;13.434;2023-06-10T02:22:37;14.50;99.90
13589;DHT22;6865;52.552;13.434;2023-06-10T02:25:05;14.50;99.90
13589;DHT22;6865;52.552;13.434;2023-06-10T02:27:32;14.50;99.90
13589;DHT22;6865;52.552;13.434;2023-06-10T02:29:59;14.50;99.90
13589;DHT22;6865;52.552;13.434;2023-06-10T02:32:25;14.50;99.90
13589;DHT22;6865;52.552;13.434;2023-06-10T02:34:53;14.40;99.90
13589;DHT22;6865;52.552;13.434;2023-06-10T02:37:20;14.50;99.90
13589;DHT22;6865;52.552;13.434;2023-06-10T02:39:47;14.40;99.90
13589;DHT22;6865;52.552;13.434;2023-06-10T02:42:13;14.40;99.90
13589;DHT22;6865;52.552;13.434;2023-06-10T02:44:40;14.40;99.90
13589;DHT22;6865;52.552;13.434;2023-06-10T02:47:07;14.40;99.90
13589;DHT22;6865;52.552;13.434;2023-06-10T02:49:33;14.40;99.90
13589;DHT22;6865;52.552;13.434;2023-06-10T02:52:00;13.80;99.90
13589;DHT22;6865;52.552;13.434;2023-06-10T02:54:27;14.30;99.90
13589;DHT22;6865;52.552;13.434;2023-06-10T02:56:54;14.30;99.90
13589;DHT22;6865;52.552;13.434;2023-06-10T02:59:22;14.30;99.90
13589;DHT22;6865;52.552;13.434;2023-06-10T03:01:49;14.30;99.90
13589;DHT22;6865;52.552;13.434;2023-06-10T03:04:16;14.10;99.90
13589;DHT22;6865;52.552;13.434;2023-06-10T03:06:42;14.30;99.90
13589;DHT22;6865;52.552;13.434;2023-06-10T03:09:09;14.30;99.90
13589;DHT22;6865;52.552;13.434;2023-06-10T03:11:36;14.30;99.90
13589;DHT22;6865;52.552;13.434;2023-06-10T03:14:03;14.30;99.90
13589;DHT22;6865;52.552;13.434;2023-06-10T03:16:30;14.20;99.90
13589;DHT22;6865;52.552;13.434;2023-06-10T03:18:58;14.20;99.90
13589;DHT22;6865;52.552;13.434;2023-06-10T03:21:25;14.20;99.90
13589;DHT22;6865;52.552;13.434;2023-06-10T03:23:52;14.30;99.90
13589;DHT22;6865;52.552;13.434;2023-06-10T03:26:18;14.30;99.90
13589;DHT22;6865;52.552;13.434;2023-06-10T03:28:48;14.30;99.90
13589;DHT22;6865;52.552;13.434;2023-06-10T03:31:15;14.30;99.90
13589;DHT22;6865;52.552;13.434;2023-06-10T03:33:43;14.30;99.90
13589;DHT22;6865;52.552;13.434;2023-06-10T03:36:10;14.30;99.90
13589;DHT22;6865;52.552;13.434;2023-06-10T03:38:37;14.40;99.90
13589;DHT22;6865;52.552;13.434;2023-06-10T03:41:03;14.40;99.90
13589;DHT22;6865;52.552;13.434;2023-06-10T03:43:30;14.40;99.90
13589;DHT22;6865;52.552;13.434;2023-06-10T03:45:57;14.40;99.90
13589;DHT22;6865;52.552;13.434;2023-06-10T03:48:24;14.40;99.90
13589;DHT22;6865;52.552;13.434;2023-06-10T03:50:51;14.50;99.90
13589;DHT22;6865;52.552;13.434;2023-06-10T03:53:18;14.50;99.90
13589;DHT22;6865;52.552;13.434;2023-06-10T03:55:45;14.50;99.90
13589;DHT22;6865;52.552;13.434;2023-06-10T03:58:12;14.50;99.90
13589;DHT22;6865;52.552;13.434;2023-06-10T04:00:41;14.60;99.90
13589;DHT22;6865;52.552;13.434;2023-06-10T04:03:09;14.60;99.90
13589;DHT22;6865;52.552;13.434;2023-06-10T04:05:36;14.60;99.90
13589;DHT22;6865;52.552;13.434;2023-06-10T04:08:02;14.70;99.90
13589;DHT22;6865;52.552;13.434;2023-06-10T04:10:29;14.70;99.90
13589;DHT22;6865;52.552;13.434;2023-06-10T04:12:56;14.70;99.90
13589;DHT22;6865;52.552;13.434;2023-06-10T04:15:23;14.70;99.90
13589;DHT22;6865;52.552;13.434;2023-06-10T04:17:49;14.70;99.90
13589;DHT22;6865;52.552;13.434;2023-06-10T04:20:16;14.80;99.90
13589;DHT22;6865;52.552;13.434;2023-06-10T04:22:43;14.80;99.90
13589;DHT22;6865;52.552;13.434;2023-06-10T04:25:10;14.90;99.90
13589;DHT22;6865;52.552;13.434;2023-06-10T04:27:37;14.90;99.90
13589;DHT22;6865;52.552;13.434;2023-06-10T04:30:05;15.00;99.90
13589;DHT22;6865;52.552;13.434;2023-06-10T04:32:31;15.10;99.90
13589;DHT22;6865;52.552;13.434;2023-06-10T04:34:59;15.10;99.90
13589;DHT22;6865;52.552;13.434;2023-06-10T04:37:26;15.10;99.90
13589;DHT22;6865;52.552;13.434;2023-06-10T04:39:55;15.20;99.90
13589;DHT22;6865;52.552;13.434;2023-06-10T04:42:23;15.10;99.90
13589;DHT22;6865;52.552;13.434;2023-06-10T04:44:49;15.20;99.90
13589;DHT22;6865;52.552;13.434;2023-06-10T04:47:16;15.30;99.90
13589;DHT22;6865;52.552;13.434;2023-06-10T04:49:43;15.30;99.90
13589;DHT22;6865;52.552;13.434;2023-06-10T04:52:11;15.30;99.90
13589;DHT22;6865;52.552;13.434;2023-06-10T04:54:37;15.20;99.90
13589;DHT22;6865;52.552;13.434;2023-06-10T04:57:06;15.30;99.90
13589;DHT22;6865;52.552;13.434;2023-06-10T04:59:34;15.40;99.90
13589;DHT22;6865;52.552;13.434;2023-06-10T05:02:04;15.40;99.90
13589;DHT22;6865;52.552;13.434;2023-06-10T05:04:32;15.40;99.90
13589;DHT22;6865;52.552;13.434;2023-06-10T05:06:58;15.40;99.90
13589;DHT22;6865;52.552;13.434;2023-06-10T05:09:25;16.60;99.90
13589;DHT22;6865;52.552;13.434;2023-06-10T05:11:52;15.20;99.90
13589;DHT22;6865;52.552;13.434;2023-06-10T05:14:20;15.60;99.90
13589;DHT22;6865;52.552;13.434;2023-06-10T05:16:50;15.70;99.90
13589;DHT22;6865;52.552;13.434;2023-06-10T05:19:17;15.70;99.90
13589;DHT22;6865;52.552;13.434;2023-06-10T05:21:45;15.90;99.90
13589;DHT22;6865;52.552;13.434;2023-06-10T05:24:11;15.80;99.90
13589;DHT22;6865;52.552;13.434;2023-06-10T05:26:38;16.10;99.90
13589;DHT22;6865;52.552;13.434;2023-06-10T05:29:05;16.30;99.90
13589;DHT22;6865;52.552;13.434;2023-06-10T05:31:32;16.40;99.90
13589;DHT22;6865;52.552;13.434;2023-06-10T05:33:59;16.70;99.90
13589;DHT22;6865;52.552;13.434;2023-06-10T05:36:25;16.80;99.90
13589;DHT22;6865;52.552;13.434;2023-06-10T05:38:53;16.90;99.90
13589;DHT22;6865;52.552;13.434;2023-06-10T05:41:19;17.10;99.90
13589;DHT22;6865;52.552;13.434;2023-06-10T05:43:47;17.20;99.90
13589;DHT22;6865;52.552;13.434;2023-06-10T05:46:14;17.40;99.90
13589;DHT22;6865;52.552;13.434;2023-06-10T05:48:40;17.50;99.90
13589;DHT22;6865;52.552;13.434;2023-06-10T05:51:07;17.70;99.90
13589;DHT22;6865;52.552;13.434;2023-06-10T05:53:34;17.90;99.90
13589;DHT22;6865;52.552;13.434;2023-06-10T05:56:01;18.10;99.90
13589;DHT22;6865;52.552;13.434;2023-06-10T05:58:27;18.20;99.90
13589;DHT22;6865;52.552;13.434;2023-06-10T06:00:54;18.40;99.90
13589;DHT22;6865;52.552;13.434;2023-06-10T06:03:21;18.50;99.90
13589;DHT22;6865;52.552;13.434;2023-06-10T06:05:48;18.30;99.90
13589;DHT22;6865;52.552;13.434;2023-06-10T06:08:15;18.60;99.90
13589;DHT22;6865;52.552;13.434;2023-06-10T06:10:52;19.00;99.90
13589;DHT22;6865;52.552;13.434;2023-06-10T06:13:19;18.90;99.90
13589;DHT22;6865;52.552;13.434;2023-06-10T06:15:46;19.00;99.90
13589;DHT22;6865;52.552;13.434;2023-06-10T06:18:13;19.00;99.90
13589;DHT22;6865;52.552;13.434;2023-06-10T06:20:40;19.00;99.90
13589;DHT22;6865;52.552;13.434;2023-06-10T06:23:08;19.10;99.90
13589;DHT22;6865;52.552;13.434;2023-06-10T06:25:37;19.30;99.90
13589;DHT22;6865;52.552;13.434;2023-06-10T06:28:10;19.10;99.90
13589;DHT22;6865;52.552;13.434;2023-06-10T06:30:36;19.20;99.90
13589;DHT22;6865;52.552;13.434;2023-06-10T06:33:03;19.20;99.90
13589;DHT22;6865;52.552;13.434;2023-06-10T06:35:31;19.20;99.90
13589;DHT22;6865;52.552;13.434;2023-06-10T06:37:58;19.20;99.90
13589;DHT22;6865;52.552;13.434;2023-06-10T06:40:25;19.20;99.90
13589;DHT22;6865;52.552;13.434;2023-06-10T06:42:52;19.30;99.90
13589;DHT22;6865;52.552;13.434;2023-06-10T06:45:19;19.20;99.90
13589;DHT22;6865;52.552;13.434;2023-06-10T06:47:45;19.30;99.90
13589;DHT22;6865;52.552;13.434;2023-06-10T06:50:12;19.40;99.90
13589;DHT22;6865;52.552;13.434;2023-06-10T06:52:39;19.60;99.90
13589;DHT22;6865;52.552;13.434;2023-06-10T06:55:06;19.70;99.90
13589;DHT22;6865;52.552;13.434;2023-06-10T06:57:33;19.80;99.90
13589;DHT22;6865;52.552;13.434;2023-06-10T07:00:00;19.90;99.90
13589;DHT22;6865;52.552;13.434;2023-06-10T07:02:27;19.90;99.90
13589;DHT22;6865;52.552;13.434;2023-06-10T07:04:53;20.00;99.90
13589;DHT22;6865;52.552;13.434;2023-06-10T07:07:22;20.30;99.90
13589;DHT22;6865;52.552;13.434;2023-06-10T07:09:49;20.50;99.90
13589;DHT22;6865;52.552;13.434;2023-06-10T07:12:16;20.90;99.90
13589;DHT22;6865;52.552;13.434;2023-06-10T07:14:44;21.10;99.90
13589;DHT22;6865;52.552;13.434;2023-06-10T07:17:11;21.30;99.90
13589;DHT22;6865;52.552;13.434;2023-06-10T07:19:38;21.40;99.90
13589;DHT22;6865;52.552;13.434;2023-06-10T07:22:05;21.40;99.90
13589;DHT22;6865;52.552;13.434;2023-06-10T07:24:31;21.50;99.90
13589;DHT22;6865;52.552;13.434;2023-06-10T07:26:58;21.70;99.90
13589;DHT22;6865;52.552;13.434;2023-06-10T07:29:25;21.90;99.90
13589;DHT22;6865;52.552;13.434;2023-06-10T07:31:52;22.10;99.90
13589;DHT22;6865;52.552;13.434;2023-06-10T07:34:19;22.10;99.90
13589;DHT22;6865;52.552;13.434;2023-06-10T07:36:46;22.10;99.90
13589;DHT22;6865;52.552;13.434;2023-06-10T07:39:13;22.10;99.90
13589;DHT22;6865;52.552;13.434;2023-06-10T07:41:40;22.10;99.90
13589;DHT22;6865;52.552;13.434;2023-06-10T07:44:06;22.10;99.90
13589;DHT22;6865;52.552;13.434;2023-06-10T07:46:33;22.10;99.90
13589;DHT22;6865;52.552;13.434;2023-06-10T07:49:00;22.10;99.90
13589;DHT22;6865;52.552;13.434;2023-06-10T07:51:26;22.20;99.90
13589;DHT22;6865;52.552;13.434;2023-06-10T07:53:53;22.40;99.90
13589;DHT22;6865;52.552;13.434;2023-06-10T07:56:19;22.30;99.90
13589;DHT22;6865;52.552;13.434;2023-06-10T07:58:48;22.50;99.90
13589;DHT22;6865;52.552;13.434;2023-06-10T08:01:14;23.00;99.90
13589;DHT22;6865;52.552;13.434;2023-06-10T08:03:42;23.40;99.90
13589;DHT22;6865;52.552;13.434;2023-06-10T08:06:09;24.00;99.60
13589;DHT22;6865;52.552;13.434;2023-06-10T08:08:38;24.30;98.30
13589;DHT22;6865;52.552;13.434;2023-06-10T08:11:11;24.30;97.60
13589;DHT22;6865;52.552;13.434;2023-06-10T08:13:37;24.10;97.20
13589;DHT22;6865;52.552;13.434;2023-06-10T08:16:04;23.80;97.50
13589;DHT22;6865;52.552;13.434;2023-06-10T08:18:31;23.50;98.10
13589;DHT22;6865;52.552;13.434;2023-06-10T08:20:58;23.40;98.60
13589;DHT22;6865;52.552;13.434;2023-06-10T08:23:24;23.30;99.00
13589;DHT22;6865;52.552;13.434;2023-06-10T08:25:51;23.30;99.20
13589;DHT22;6865;52.552;13.434;2023-06-10T08:28:18;23.50;99.20
13589;DHT22;6865;52.552;13.434;2023-06-10T08:30:45;23.70;99.00
13589;DHT22;6865;52.552;13.434;2023-06-10T08:33:11;24.00;98.70
13589;DHT22;6865;52.552;13.434;2023-06-10T08:35:38;24.10;98.30
13589;DHT22;6865;52.552;13.434;2023-06-10T08:38:05;24.30;97.90
13589;DHT22;6865;52.552;13.434;2023-06-10T08:40:33;24.60;97.60
13589;DHT22;6865;52.552;13.434;2023-06-10T08:43:07;24.50;96.30
13589;DHT22;6865;52.552;13.434;2023-06-10T08:45:35;23.00;96.20
13589;DHT22;6865;52.552;13.434;2023-06-10T08:48:03;24.10;96.70
13589;DHT22;6865;52.552;13.434;2023-06-10T08:50:37;23.70;97.10
13589;DHT22;6865;52.552;13.434;2023-06-10T08:53:06;23.40;97.80
13589;DHT22;6865;52.552;13.434;2023-06-10T08:55:36;23.30;98.30
13589;DHT22;6865;52.552;13.434;2023-06-10T08:58:04;23.30;98.40
13589;DHT22;6865;52.552;13.434;2023-06-10T09:00:31;23.20;98.90
13589;DHT22;6865;52.552;13.434;2023-06-10T09:02:59;23.10;98.70
13589;DHT22;6865;52.552;13.434;2023-06-10T09:05:33;23.00;99.20
13589;DHT22;6865;52.552;13.434;2023-06-10T09:08:01;22.80;99.30
13589;DHT22;6865;52.552;13.434;2023-06-10T09:10:28;22.80;99.50
13589;DHT22;6865;52.552;13.434;2023-06-10T09:12:55;22.50;99.90
13589;DHT22;6865;52.552;13.434;2023-06-10T09:15:23;22.40;99.90
13589;DHT22;6865;52.552;13.434;2023-06-10T09:17:50;20.50;99.90
13589;DHT22;6865;52.552;13.434;2023-06-10T09:20:18;21.70;99.90
13589;DHT22;6865;52.552;13.434;2023-06-10T09:22:45;21.50;99.90
13589;DHT22;6865;52.552;13.434;2023-06-10T09:25:13;21.30;99.90
13589;DHT22;6865;52.552;13.434;2023-06-10T09:27:47;21.20;99.90
13589;DHT22;6865;52.552;13.434;2023-06-10T09:30:30;22.10;99.90
13589;DHT22;6865;52.552;13.434;2023-06-10T09:33:02;21.10;99.90
13589;DHT22;6865;52.552;13.434;2023-06-10T09:35:30;21.00;99.90
13589;DHT22;6865;52.552;13.434;2023-06-10T09:38:00;21.00;99.90
13589;DHT22;6865;52.552;13.434;2023-06-10T09:40:27;20.90;99.90
13589;DHT22;6865;52.552;13.434;2023-06-10T09:42:58;20.80;99.90
13589;DHT22;6865;52.552;13.434;2023-06-10T09:45:32;20.80;99.90
13589;DHT22;6865;52.552;13.434;2023-06-10T09:48:00;20.80;99.90
13589;DHT22;6865;52.552;13.434;2023-06-10T09:50:27;20.90;99.90
13589;DHT22;6865;52.552;13.434;2023-06-10T09:52:54;21.00;99.90
13589;DHT22;6865;52.552;13.434;2023-06-10T09:55:20;21.10;99.90
13589;DHT22;6865;52.552;13.434;2023-06-10T09:57:49;21.20;99.90
13589;DHT22;6865;52.552;13.434;2023-06-10T10:00:16;21.20;99.90
13589;DHT22;6865;52.552;13.434;2023-06-10T10:02:48;21.30;99.90
13589;DHT22;6865;52.552;13.434;2023-06-10T10:05:17;21.40;99.90
13589;DHT22;6865;52.552;13.434;2023-06-10T10:07:45;21.50;99.90
13589;DHT22;6865;52.552;13.434;2023-06-10T10:10:13;21.60;99.90
13589;DHT22;6865;52.552;13.434;2023-06-10T10:12:42;21.70;99.90
13589;DHT22;6865;52.552;13.434;2023-06-10T10:15:10;21.80;99.90
13589;DHT22;6865;52.552;13.434;2023-06-10T10:17:40;21.90;99.90
13589;DHT22;6865;52.552;13.434;2023-06-10T10:20:12;22.00;99.90
13589;DHT22;6865;52.552;13.434;2023-06-10T10:22:43;22.10;99.90
13589;DHT22;6865;52.552;13.434;2023-06-10T10:25:11;22.20;99.90
13589;DHT22;6865;52.552;13.434;2023-06-10T10:27:51;22.30;99.90
13589;DHT22;6865;52.552;13.434;2023-06-10T10:30:20;22.30;99.90
13589;DHT22;6865;52.552;13.434;2023-06-10T10:33:06;22.50;99.90
13589;DHT22;6865;52.552;13.434;2023-06-10T10:35:37;22.30;99.90
13589;DHT22;6865;52.552;13.434;2023-06-10T10:38:05;22.20;99.90
13589;DHT22;6865;52.552;13.434;2023-06-10T10:40:33;22.10;99.90
13589;DHT22;6865;52.552;13.434;2023-06-10T10:43:01;22.10;99.90
13589;DHT22;6865;52.552;13.434;2023-06-10T10:45:33;22.10;99.90
13589;DHT22;6865;52.552;13.434;2023-06-10T10:48:05;22.00;99.90
13589;DHT22;6865;52.552;13.434;2023-06-10T10:50:35;22.00;99.90
13589;DHT22;6865;52.552;13.434;2023-06-10T10:53:04;21.90;99.90
13589;DHT22;6865;52.552;13.434;2023-06-10T10:55:31;21.90;99.90
13589;DHT22;6865;52.552;13.434;2023-06-10T10:58:13;21.80;99.90
13589;DHT22;6865;52.552;13.434;2023-06-10T11:00:45;21.80;99.90
13589;DHT22;6865;52.552;13.434;2023-06-10T11:03:14;21.70;99.90
13589;DHT22;6865;52.552;13.434;2023-06-10T11:05:45;22.00;99.90
13589;DHT22;6865;52.552;13.434;2023-06-10T11:08:15;22.20;99.30
13589;DHT22;6865;52.552;13.434;2023-06-10T11:11:18;22.40;99.70
13589;DHT22;6865;52.552;13.434;2023-06-10T11:16:28;22.80;99.20
13589;DHT22;6865;52.552;13.434;2023-06-10T11:18:56;23.10;97.00
13589;DHT22;6865;52.552;13.434;2023-06-10T11:21:25;23.30;95.90
13589;DHT22;6865;52.552;13.434;2023-06-10T11:23:58;23.40;95.40
13589;DHT22;6865;52.552;13.434;2023-06-10T11:31:43;23.80;95.30
13589;DHT22;6865;52.552;13.434;2023-06-10T11:34:10;23.90;96.50
13589;DHT22;6865;52.552;13.434;2023-06-10T11:36:39;24.10;96.90
13589;DHT22;6865;52.552;13.434;2023-06-10T11:39:10;24.10;97.30
13589;DHT22;6865;52.552;13.434;2023-06-10T11:41:38;24.00;98.30
13589;DHT22;6865;52.552;13.434;2023-06-10T11:44:11;24.00;98.60
13589;DHT22;6865;52.552;13.434;2023-06-10T11:46:41;24.00;99.20
13589;DHT22;6865;52.552;13.434;2023-06-10T11:49:09;24.00;99.90
13589;DHT22;6865;52.552;13.434;2023-06-10T11:51:38;24.00;99.90
13589;DHT22;6865;52.552;13.434;2023-06-10T11:54:08;24.20;99.90
13589;DHT22;6865;52.552;13.434;2023-06-10T11:56:35;24.10;99.30
13589;DHT22;6865;52.552;13.434;2023-06-10T11:59:03;24.10;99.30
13589;DHT22;6865;52.552;13.434;2023-06-10T12:01:33;24.10;99.50
13589;DHT22;6865;52.552;13.434;2023-06-10T12:04:05;24.10;99.30
13589;DHT22;6865;52.552;13.434;2023-06-10T12:06:43;24.20;99.70
13589;DHT22;6865;52.552;13.434;2023-06-10T12:09:24;24.50;99.30
13589;DHT22;6865;52.552;13.434;2023-06-10T12:12:09;24.70;97.50
13589;DHT22;6865;52.552;13.434;2023-06-10T12:14:56;24.90;96.60
13589;DHT22;6865;52.552;13.434;2023-06-10T12:20:24;25.10;93.50
13589;DHT22;6865;52.552;13.434;2023-06-10T12:22:49;25.20;90.90
13589;DHT22;6865;52.552;13.434;2023-06-10T12:25:15;25.30;89.50
13589;DHT22;6865;52.552;13.434;2023-06-10T12:27:53;25.40;87.70
13589;DHT22;6865;52.552;13.434;2023-06-10T12:30:21;25.60;86.20
13589;DHT22;6865;52.552;13.434;2023-06-10T12:32:48;25.70;85.30
13589;DHT22;6865;52.552;13.434;2023-06-10T12:35:24;25.90;86.00
13589;DHT22;6865;52.552;13.434;2023-06-10T12:38:09;26.10;86.60
13589;DHT22;6865;52.552;13.434;2023-06-10T12:40:39;26.30;86.80
13589;DHT22;6865;52.552;13.434;2023-06-10T12:43:10;26.40;86.00
13589;DHT22;6865;52.552;13.434;2023-06-10T12:45:38;26.40;85.80
13589;DHT22;6865;52.552;13.434;2023-06-10T12:48:27;26.50;86.40
13589;DHT22;6865;52.552;13.434;2023-06-10T12:50:57;26.60;87.50
13589;DHT22;6865;52.552;13.434;2023-06-10T12:53:25;26.60;88.70
13589;DHT22;6865;52.552;13.434;2023-06-10T12:55:54;26.70;88.80
13589;DHT22;6865;52.552;13.434;2023-06-10T12:58:21;26.70;88.20
13589;DHT22;6865;52.552;13.434;2023-06-10T13:00:49;26.80;87.70
13589;DHT22;6865;52.552;13.434;2023-06-10T13:03:18;26.70;87.30
13589;DHT22;6865;52.552;13.434;2023-06-10T13:05:45;26.80;88.10
13589;DHT22;6865;52.552;13.434;2023-06-10T13:08:12;26.80;88.00
13589;DHT22;6865;52.552;13.434;2023-06-10T13:10:39;26.90;85.70
13589;DHT22;6865;52.552;13.434;2023-06-10T13:13:08;26.90;84.90
13589;DHT22;6865;52.552;13.434;2023-06-10T13:15:36;26.90;84.90
13589;DHT22;6865;52.552;13.434;2023-06-10T13:18:09;27.10;85.00
13589;DHT22;6865;52.552;13.434;2023-06-10T13:20:38;27.10;84.50
13589;DHT22;6865;52.552;13.434;2023-06-10T13:23:05;27.20;84.70
13589;DHT22;6865;52.552;13.434;2023-06-10T13:25:32;27.20;84.80
13589;DHT22;6865;52.552;13.434;2023-06-10T13:28:03;27.30;85.60
13589;DHT22;6865;52.552;13.434;2023-06-10T13:30:30;27.40;85.00
13589;DHT22;6865;52.552;13.434;2023-06-10T13:32:57;27.40;84.70
13589;DHT22;6865;52.552;13.434;2023-06-10T13:35:23;27.50;84.00
13589;DHT22;6865;52.552;13.434;2023-06-10T13:37:50;27.50;82.20
13589;DHT22;6865;52.552;13.434;2023-06-10T13:40:17;27.60;82.90
13589;DHT22;6865;52.552;13.434;2023-06-10T13:42:46;27.70;81.50
13589;DHT22;6865;52.552;13.434;2023-06-10T13:45:17;27.60;81.50
13589;DHT22;6865;52.552;13.434;2023-06-10T13:47:44;27.60;81.70
13589;DHT22;6865;52.552;13.434;2023-06-10T13:50:11;27.60;82.40
13589;DHT22;6865;52.552;13.434;2023-06-10T13:52:37;27.60;81.20
13589;DHT22;6865;52.552;13.434;2023-06-10T13:55:04;27.60;80.50
13589;DHT22;6865;52.552;13.434;2023-06-10T13:57:31;27.60;80.30
13589;DHT22;6865;52.552;13.434;2023-06-10T13:59:58;27.60;80.90
13589;DHT22;6865;52.552;13.434;2023-06-10T14:02:25;27.70;81.90
13589;DHT22;6865;52.552;13.434;2023-06-10T14:04:51;27.60;80.70
13589;DHT22;6865;52.552;13.434;2023-06-10T14:07:18;27.50;80.30
13589;DHT22;6865;52.552;13.434;2023-06-10T14:09:45;27.40;80.30
13589;DHT22;6865;52.552;13.434;2023-06-10T14:12:11;27.40;78.00
13589;DHT22;6865;52.552;13.434;2023-06-10T14:14:39;27.40;73.70
13589;DHT22;6865;52.552;13.434;2023-06-10T14:17:05;27.50;70.90
13589;DHT22;6865;52.552;13.434;2023-06-10T14:19:32;27.50;69.50
13589;DHT22;6865;52.552;13.434;2023-06-10T14:21:59;27.50;68.90
13589;DHT22;6865;52.552;13.434;2023-06-10T14:24:25;27.50;68.70
13589;DHT22;6865;52.552;13.434;2023-06-10T14:26:52;27.40;68.60
13589;DHT22;6865;52.552;13.434;2023-06-10T14:29:19;27.40;69.10
13589;DHT22;6865;52.552;13.434;2023-06-10T14:31:47;27.60;69.60
13589;DHT22;6865;52.552;13.434;2023-06-10T14:34:13;27.60;68.70
13589;DHT22;6865;52.552;13.434;2023-06-10T14:36:40;27.70;69.20
13589;DHT22;6865;52.552;13.434;2023-06-10T14:39:07;27.80;68.80
13589;DHT22;6865;52.552;13.434;2023-06-10T14:41:33;27.80;68.10
13589;DHT22;6865;52.552;13.434;2023-06-10T14:44:00;27.70;67.90
13589;DHT22;6865;52.552;13.434;2023-06-10T14:46:27;27.90;67.30
13589;DHT22;6865;52.552;13.434;2023-06-10T14:48:53;28.00;67.10
13589;DHT22;6865;52.552;13.434;2023-06-10T14:51:20;28.10;65.80
13589;DHT22;6865;52.552;13.434;2023-06-10T14:53:47;28.00;64.10
13589;DHT22;6865;52.552;13.434;2023-06-10T14:56:14;28.00;64.00
13589;DHT22;6865;52.552;13.434;2023-06-10T14:58:41;28.10;62.00
13589;DHT22;6865;52.552;13.434;2023-06-10T15:01:07;28.10;62.30
13589;DHT22;6865;52.552;13.434;2023-06-10T15:03:35;28.10;61.80
13589;DHT22;6865;52.552;13.434;2023-06-10T15:06:01;28.00;61.40
13589;DHT22;6865;52.552;13.434;2023-06-10T15:08:29;28.20;61.10
13589;DHT22;6865;52.552;13.434;2023-06-10T15:10:56;28.20;60.60
13589;DHT22;6865;52.552;13.434;2023-06-10T15:13:23;28.20;60.40
13589;DHT22;6865;52.552;13.434;2023-06-10T15:15:50;28.20;60.00
13589;DHT22;6865;52.552;13.434;2023-06-10T15:18:17;28.30;60.10
13589;DHT22;6865;52.552;13.434;2023-06-10T15:20:45;28.30;60.20
13589;DHT22;6865;52.552;13.434;2023-06-10T15:23:11;28.40;58.90
13589;DHT22;6865;52.552;13.434;2023-06-10T15:25:38;28.30;58.90
13589;DHT22;6865;52.552;13.434;2023-06-10T15:28:07;28.20;58.50
13589;DHT22;6865;52.552;13.434;2023-06-10T15:30:34;28.20;58.30
13589;DHT22;6865;52.552;13.434;2023-06-10T15:33:01;28.20;59.10
13589;DHT22;6865;52.552;13.434;2023-06-10T15:35:28;28.30;59.30
13589;DHT22;6865;52.552;13.434;2023-06-10T15:37:54;28.20;58.70
13589;DHT22;6865;52.552;13.434;2023-06-10T15:40:21;28.20;58.80
13589;DHT22;6865;52.552;13.434;2023-06-10T15:42:48;28.10;59.10
13589;DHT22;6865;52.552;13.434;2023-06-10T15:45:15;28.00;59.50
13589;DHT22;6865;52.552;13.434;2023-06-10T15:47:41;28.00;59.80
13589;DHT22;6865;52.552;13.434;2023-06-10T15:50:09;28.00;60.10